Time;durP1;ratioP1;P1;durP2;ratioP2;P2;SDS_P1;SDS_P2;PMS_P1;PMS_P2;Temp;Humidity;BMP_temperature;BMP_pressure;BME280_temperature;BME280_humidity;BME280_pressure;Samples;Min_cycle;Max_cycle;Signal;HPM_P1;HPM_P2
2023/01/20 00:01:15;;;;;;;;;16.50;14.75;;;;;-147.17;100.00;-15917.19;5053492;27;51212;-52
2023/01/20 00:03:41;;;;;;;;;20.25;18.50;;;;;-147.17;100.00;-15917.19;5066354;28;51101;-53
2023/01/20 00:06:07;;;;;;;;;23.50;19.50;;;;;-147.17;100.00;-15917.19;5047858;28;51401;-54
2023/01/20 00:08:33;;;;;;;;;18.50;15.25;;;;;-147.17;100.00;-15917.19;5067749;28;51848;-53
2023/01/20 00:11:03;;;;;;;;;26.50;24.75;;;;;-147.17;100.00;-15917.19;5057220;27;50973;-53
2023/01/20 00:13:28;;;;;;;;;30.00;25.00;;;;;-147.17;100.00;-15917.19;5039101;28;51174;-52
2023/01/20 00:15:54;;;;;;;;;27.00;24.00;;;;;-147.17;100.00;-15917.19;5053635;28;51123;-55
2023/01/20 00:18:19;;;;;;;;;27.25;21.50;;;;;-147.17;100.00;-15917.19;5064498;28;51515;-51
2023/01/20 00:20:45;;;;;;;;;23.50;21.50;;;;;-147.17;100.00;-15917.19;5056472;28;51092;-51
2023/01/20 00:23:10;;;;;;;;;19.75;19.75;;;;;-147.17;100.00;-15917.19;5065072;27;51270;-53
2023/01/20 00:25:36;;;;;;;;;23.25;19.75;;;;;-147.17;100.00;-15917.19;5045392;28;51212;-53
2023/01/20 00:28:02;;;;;;;;;19.00;16.50;;;;;-147.17;100.00;-15917.19;5063637;27;51064;-52
2023/01/20 00:30:27;;;;;;;;;18.25;16.25;;;;;-147.17;100.00;-15917.19;5059593;28;51170;-55
2023/01/20 00:32:53;;;;;;;;;20.50;17.50;;;;;-147.17;100.00;-15917.19;5059228;28;51113;-53
2023/01/20 00:35:18;;;;;;;;;20.75;19.00;;;;;-147.17;100.00;-15917.19;5047222;27;51272;-55
2023/01/20 00:37:44;;;;;;;;;17.00;14.00;;;;;-147.17;100.00;-15917.19;5048143;27;53318;-53
2023/01/20 00:40:10;;;;;;;;;17.75;14.00;;;;;-147.17;100.00;-15917.19;5059234;28;51161;-51
2023/01/20 00:42:36;;;;;;;;;20.75;18.00;;;;;-147.17;100.00;-15917.19;5045851;28;50933;-54
2023/01/20 00:45:01;;;;;;;;;19.75;18.25;;;;;-147.17;100.00;-15917.19;5062950;28;51319;-54
2023/01/20 00:47:27;;;;;;;;;22.50;19.25;;;;;-147.17;100.00;-15917.19;5070839;28;52388;-54
2023/01/20 00:49:52;;;;;;;;;28.00;23.00;;;;;-147.17;100.00;-15917.19;5062344;28;51154;-54
2023/01/20 00:52:18;;;;;;;;;22.00;20.75;;;;;-147.17;100.00;-15917.19;5028929;27;51096;-51
2023/01/20 00:54:44;;;;;;;;;22.75;21.75;;;;;-147.17;100.00;-15917.19;5033033;28;51610;-52
2023/01/20 00:57:10;;;;;;;;;26.25;22.75;;;;;-147.17;100.00;-15917.19;5041559;28;51822;-53
2023/01/20 00:59:35;;;;;;;;;18.00;18.00;;;;;-147.17;100.00;-15917.19;5053939;27;51259;-54
2023/01/20 01:02:01;;;;;;;;;18.50;18.00;;;;;-147.17;100.00;-15917.19;5053759;28;51219;-55
2023/01/20 01:04:26;;;;;;;;;21.75;18.00;;;;;-147.17;100.00;-15917.19;5038783;28;51013;-51
2023/01/20 01:06:52;;;;;;;;;21.50;19.50;;;;;-147.17;100.00;-15917.19;5037061;28;51209;-51
2023/01/20 01:09:17;;;;;;;;;22.25;21.00;;;;;-147.17;100.00;-15917.19;5047179;28;51106;-51
2023/01/20 01:11:43;;;;;;;;;21.00;20.75;;;;;-147.17;100.00;-15917.19;5040687;28;51260;-53
2023/01/20 01:14:08;;;;;;;;;20.75;19.50;;;;;-147.17;100.00;-15917.19;5053445;28;50875;-53
2023/01/20 01:16:34;;;;;;;;;23.25;21.25;;;;;-147.17;100.00;-15917.19;5043034;28;52574;-53
2023/01/20 01:19:00;;;;;;;;;21.25;20.00;;;;;-147.17;100.00;-15917.19;5059277;28;51030;-54
2023/01/20 01:21:26;;;;;;;;;19.50;15.00;;;;;-147.17;100.00;-15917.19;5045259;28;51085;-52
2023/01/20 01:23:52;;;;;;;;;24.50;23.00;;;;;-147.17;100.00;-15917.19;5035302;28;52116;-51
2023/01/20 01:26:17;;;;;;;;;25.00;23.00;;;;;-147.17;100.00;-15917.19;5043991;28;52931;-53
2023/01/20 01:28:45;;;;;;;;;26.50;21.00;;;;;-147.17;100.00;-15917.19;5055608;28;51118;-51
2023/01/20 01:31:11;;;;;;;;;16.25;14.00;;;;;-147.17;100.00;-15917.19;5046577;27;51206;-53
2023/01/20 01:33:37;;;;;;;;;18.25;17.75;;;;;-147.17;100.00;-15917.19;5046222;28;51072;-52
2023/01/20 01:36:03;;;;;;;;;23.00;21.00;;;;;-147.17;100.00;-15917.19;5060197;27;51937;-54
2023/01/20 01:38:29;;;;;;;;;23.00;21.25;;;;;-147.17;100.00;-15917.19;5060433;27;51120;-52
2023/01/20 01:40:55;;;;;;;;;26.25;24.00;;;;;-147.17;100.00;-15917.19;5063410;28;50950;-54
2023/01/20 01:43:27;;;;;;;;;24.25;21.75;;;;;-147.17;100.00;-15917.19;5066427;28;51217;-53
2023/01/20 01:45:53;;;;;;;;;25.75;24.25;;;;;-147.17;100.00;-15917.19;5050699;27;50928;-52
2023/01/20 01:48:43;;;;;;;;;18.50;16.75;;;;;-147.17;100.00;-15917.19;5049530;27;51133;-53
2023/01/20 01:51:12;;;;;;;;;20.50;18.50;;;;;-147.17;100.00;-15917.19;5043432;28;51249;-52
2023/01/20 01:53:43;;;;;;;;;18.50;17.75;;;;;-147.17;100.00;-15917.19;5042413;28;51234;-54
2023/01/20 01:56:09;;;;;;;;;16.75;14.00;;;;;-147.17;100.00;-15917.19;5059604;27;51934;-54
2023/01/20 01:58:38;;;;;;;;;19.00;17.75;;;;;-147.17;100.00;-15917.19;5052570;28;51183;-52
2023/01/20 02:01:03;;;;;;;;;22.25;20.75;;;;;-147.17;100.00;-15917.19;5061167;28;51070;-53
2023/01/20 02:03:40;;;;;;;;;20.75;17.75;;;;;-147.17;100.00;-15917.19;5060825;28;51519;-52
2023/01/20 02:06:07;;;;;;;;;18.50;17.75;;;;;-147.17;100.00;-15917.19;5043900;28;51156;-53
2023/01/20 02:08:32;;;;;;;;;22.25;20.75;;;;;-147.17;100.00;-15917.19;5039200;28;51257;-53
2023/01/20 02:10:58;;;;;;;;;16.75;15.75;;;;;-147.17;100.00;-15917.19;5034141;28;51114;-50
2023/01/20 02:13:23;;;;;;;;;20.00;17.50;;;;;-147.17;100.00;-15917.19;5042295;28;51022;-52
2023/01/20 02:16:15;;;;;;;;;25.75;21.00;;;;;-147.17;100.00;-15917.19;5045734;28;51026;-52
2023/01/20 02:18:46;;;;;;;;;23.75;20.75;;;;;-147.17;100.00;-15917.19;5032317;28;52061;-52
2023/01/20 02:21:45;;;;;;;;;25.75;21.75;;;;;-147.17;100.00;-15917.19;5043412;28;51113;-52
2023/01/20 02:24:44;;;;;;;;;31.75;25.25;;;;;-147.17;100.00;-15917.19;5044797;28;51026;-51
2023/01/20 02:27:37;;;;;;;;;20.25;20.00;;;;;-147.17;100.00;-15917.19;5041671;28;51067;-53
2023/01/20 02:30:17;;;;;;;;;20.75;19.00;;;;;-147.17;100.00;-15917.19;5043706;28;51086;-52
2023/01/20 02:33:08;;;;;;;;;28.50;24.00;;;;;-147.17;100.00;-15917.19;5043793;28;51200;-53
2023/01/20 02:35:55;;;;;;;;;24.25;21.50;;;;;-147.17;100.00;-15917.19;5049147;28;51140;-50
2023/01/20 02:38:27;;;;;;;;;28.00;24.00;;;;;-147.17;100.00;-15917.19;5036675;28;52739;-52
2023/01/20 02:41:10;;;;;;;;;31.50;28.25;;;;;-147.17;100.00;-15917.19;5036510;28;51888;-52
2023/01/20 02:43:51;;;;;;;;;27.50;25.25;;;;;-147.17;100.00;-15917.19;5037928;28;51136;-50
2023/01/20 02:46:37;;;;;;;;;36.25;30.00;;;;;-147.17;100.00;-15917.19;5049795;28;50966;-51
2023/01/20 02:49:11;;;;;;;;;29.00;25.75;;;;;-147.17;100.00;-15917.19;5032960;28;53207;-51
2023/01/20 02:51:58;;;;;;;;;36.75;33.25;;;;;-147.17;100.00;-15917.19;5057911;28;51024;-53
2023/01/20 02:54:28;;;;;;;;;31.25;29.25;;;;;-147.17;100.00;-15917.19;5048143;28;51275;-52
2023/01/20 02:56:57;;;;;;;;;27.75;25.75;;;;;-147.17;100.00;-15917.19;5053602;28;51173;-52
2023/01/20 02:59:30;;;;;;;;;24.75;21.75;;;;;-147.17;100.00;-15917.19;5034719;28;51970;-51
2023/01/20 03:02:05;;;;;;;;;27.25;24.50;;;;;-147.17;100.00;-15917.19;5038051;28;51365;-50
2023/01/20 03:04:39;;;;;;;;;24.00;23.00;;;;;-147.17;100.00;-15917.19;5042664;28;51188;-51
2023/01/20 03:07:08;;;;;;;;;19.25;19.25;;;;;-147.17;100.00;-15917.19;5054538;28;50958;-53
2023/01/20 03:09:39;;;;;;;;;24.50;21.25;;;;;-147.17;100.00;-15917.19;5047298;28;52379;-52
2023/01/20 03:12:15;;;;;;;;;21.50;20.75;;;;;-147.17;100.00;-15917.19;5049312;28;51097;-52
2023/01/20 03:14:41;;;;;;;;;22.50;18.50;;;;;-147.17;100.00;-15917.19;5050091;27;50980;-53
2023/01/20 03:17:06;;;;;;;;;25.00;19.50;;;;;-147.17;100.00;-15917.19;5036987;28;51280;-53
2023/01/20 03:19:31;;;;;;;;;24.00;20.75;;;;;-147.17;100.00;-15917.19;5039044;28;51951;-53
2023/01/20 03:21:57;;;;;;;;;23.25;20.75;;;;;-147.17;100.00;-15917.19;5056642;28;51332;-51
2023/01/20 03:24:24;;;;;;;;;21.50;17.75;;;;;-147.17;100.00;-15917.19;5034041;28;51287;-50
2023/01/20 03:26:50;;;;;;;;;23.75;18.25;;;;;-147.17;100.00;-15917.19;5047730;28;50908;-51
2023/01/20 03:29:17;;;;;;;;;20.50;17.50;;;;;-147.17;100.00;-15917.19;5035323;28;52027;-51
2023/01/20 03:31:53;;;;;;;;;18.00;16.75;;;;;-147.17;100.00;-15917.19;5052489;28;51040;-50
2023/01/20 03:34:21;;;;;;;;;20.00;19.25;;;;;-147.17;100.00;-15917.19;5043445;28;51210;-53
2023/01/20 03:36:49;;;;;;;;;18.00;15.50;;;;;-147.17;100.00;-15917.19;5034456;28;51192;-52
2023/01/20 03:39:14;;;;;;;;;20.50;19.00;;;;;-147.17;100.00;-15917.19;5038434;28;53948;-51
2023/01/20 03:42:07;;;;;;;;;21.50;21.50;;;;;-147.17;100.00;-15917.19;5058858;28;50940;-50
2023/01/20 03:44:41;;;;;;;;;20.25;17.00;;;;;-147.17;100.00;-15917.19;5036424;28;51260;-51
2023/01/20 03:47:32;;;;;;;;;28.00;24.00;;;;;-147.17;100.00;-15917.19;5041601;28;51501;-54
2023/01/20 03:50:12;;;;;;;;;21.00;19.75;;;;;-147.17;100.00;-15917.19;5062828;27;51887;-52
2023/01/20 03:52:49;;;;;;;;;25.25;21.75;;;;;-147.17;100.00;-15917.19;5042006;28;51144;-52
2023/01/20 03:55:19;;;;;;;;;26.00;20.50;;;;;-147.17;100.00;-15917.19;5052051;28;51624;-53
2023/01/20 03:57:57;;;;;;;;;18.75;14.00;;;;;-147.17;100.00;-15917.19;5041133;28;51231;-53
2023/01/20 04:00:26;;;;;;;;;24.75;21.50;;;;;-147.17;100.00;-15917.19;5036149;28;51258;-53
2023/01/20 04:02:53;;;;;;;;;25.25;21.25;;;;;-147.17;100.00;-15917.19;5047114;28;50981;-52
2023/01/20 04:05:20;;;;;;;;;20.00;19.00;;;;;-147.17;100.00;-15917.19;5038910;28;51115;-53
2023/01/20 04:07:46;;;;;;;;;23.75;20.75;;;;;-147.17;100.00;-15917.19;5060992;28;51427;-53
2023/01/20 04:10:14;;;;;;;;;16.00;15.00;;;;;-147.17;100.00;-15917.19;5048792;27;53122;-52
2023/01/20 04:12:40;;;;;;;;;15.75;15.25;;;;;-147.17;100.00;-15917.19;5058295;28;51126;-52
2023/01/20 04:15:06;;;;;;;;;20.50;17.75;;;;;-147.17;100.00;-15917.19;5053494;27;51394;-53
2023/01/20 04:17:32;;;;;;;;;21.25;19.25;;;;;-147.17;100.00;-15917.19;5053692;28;51075;-53
2023/01/20 04:20:03;;;;;;;;;17.50;14.50;;;;;-147.17;100.00;-15917.19;5054730;28;51395;-52
2023/01/20 04:22:37;;;;;;;;;16.75;15.25;;;;;-147.17;100.00;-15917.19;5050298;27;53071;-54
2023/01/20 04:25:16;;;;;;;;;23.75;19.75;;;;;-147.17;100.00;-15917.19;5036816;28;51215;-51
2023/01/20 04:27:41;;;;;;;;;18.75;16.00;;;;;-147.17;100.00;-15917.19;5076851;27;50996;-52
2023/01/20 04:30:08;;;;;;;;;20.00;18.50;;;;;-147.17;100.00;-15917.19;5061973;28;51745;-52
2023/01/20 04:32:33;;;;;;;;;15.00;10.00;;;;;-147.17;100.00;-15917.19;5060545;28;51049;-52
2023/01/20 04:34:58;;;;;;;;;21.00;19.25;;;;;-147.17;100.00;-15917.19;5041538;28;51256;-52
2023/01/20 04:37:25;;;;;;;;;18.00;17.00;;;;;-147.17;100.00;-15917.19;5058246;28;51286;-52
2023/01/20 04:39:50;;;;;;;;;20.00;18.25;;;;;-147.17;100.00;-15917.19;5050030;28;51880;-54
2023/01/20 04:42:16;;;;;;;;;14.00;14.00;;;;;-147.17;100.00;-15917.19;5043670;27;51189;-53
2023/01/20 04:44:41;;;;;;;;;18.25;18.00;;;;;-147.17;100.00;-15917.19;5034886;28;51085;-53
2023/01/20 04:47:06;;;;;;;;;22.00;20.00;;;;;-147.17;100.00;-15917.19;5046984;28;51250;-52
2023/01/20 04:49:33;;;;;;;;;21.25;16.00;;;;;-147.17;100.00;-15917.19;5032778;28;51369;-53
2023/01/20 04:51:58;;;;;;;;;21.50;16.50;;;;;-147.17;100.00;-15917.19;5038655;28;51112;-53
2023/01/20 04:54:24;;;;;;;;;18.00;16.00;;;;;-147.17;100.00;-15917.19;5047769;27;51264;-53
2023/01/20 04:56:49;;;;;;;;;19.50;17.50;;;;;-147.17;100.00;-15917.19;5051646;28;51206;-52
2023/01/20 04:59:14;;;;;;;;;17.75;17.00;;;;;-147.17;100.00;-15917.19;5055534;28;50954;-53
2023/01/20 05:01:40;;;;;;;;;14.00;13.25;;;;;-147.17;100.00;-15917.19;5068211;28;51103;-51
2023/01/20 05:04:05;;;;;;;;;14.50;13.00;;;;;-147.17;100.00;-15917.19;5058561;27;50872;-52
2023/01/20 05:06:30;;;;;;;;;17.75;16.50;;;;;-147.17;100.00;-15917.19;5046536;27;51645;-52
2023/01/20 05:08:56;;;;;;;;;16.25;16.00;;;;;-147.17;100.00;-15917.19;5054644;27;51281;-53
2023/01/20 05:11:21;;;;;;;;;10.25;9.75;;;;;-147.17;100.00;-15917.19;5061166;27;50944;-51
2023/01/20 05:13:47;;;;;;;;;24.00;16.25;;;;;-147.17;100.00;-15917.19;5042598;27;51078;-53
2023/01/20 05:16:12;;;;;;;;;18.75;16.75;;;;;-147.17;100.00;-15917.19;5060269;28;51026;-53
2023/01/20 05:18:38;;;;;;;;;18.50;18.25;;;;;-147.17;100.00;-15917.19;5066972;27;51744;-54
2023/01/20 05:21:04;;;;;;;;;20.00;18.00;;;;;-147.17;100.00;-15917.19;5045330;28;51205;-51
2023/01/20 05:23:29;;;;;;;;;18.00;17.00;;;;;-147.17;100.00;-15917.19;5038278;28;51210;-52
2023/01/20 05:25:55;;;;;;;;;19.50;17.00;;;;;-147.17;100.00;-15917.19;5052638;28;51308;-52
2023/01/20 05:28:21;;;;;;;;;19.75;19.50;;;;;-147.17;100.00;-15917.19;5061212;28;51050;-52
2023/01/20 05:30:47;;;;;;;;;21.00;20.75;;;;;-147.17;100.00;-15917.19;5059103;27;51219;-52
2023/01/20 05:33:12;;;;;;;;;22.25;19.00;;;;;-147.17;100.00;-15917.19;5045614;28;50910;-53
2023/01/20 05:35:38;;;;;;;;;19.75;19.75;;;;;-147.17;100.00;-15917.19;5054006;27;50950;-51
2023/01/20 05:38:03;;;;;;;;;16.50;16.00;;;;;-147.17;100.00;-15917.19;5068754;28;54326;-52
2023/01/20 05:40:29;;;;;;;;;20.25;20.25;;;;;-147.17;100.00;-15917.19;5072000;27;51056;-53
2023/01/20 05:43:01;;;;;;;;;22.75;19.75;;;;;-147.17;100.00;-15917.19;5047475;27;51021;-52
2023/01/20 05:45:28;;;;;;;;;23.50;19.00;;;;;-147.17;100.00;-15917.19;5069282;27;51061;-51
2023/01/20 05:47:57;;;;;;;;;24.00;23.50;;;;;-147.17;100.00;-15917.19;5049944;27;51875;-53
2023/01/20 05:50:24;;;;;;;;;17.00;16.75;;;;;-147.17;100.00;-15917.19;5061869;27;51168;-53
2023/01/20 05:52:49;;;;;;;;;22.00;19.25;;;;;-147.17;100.00;-15917.19;5074308;27;51078;-51
2023/01/20 05:55:15;;;;;;;;;28.00;23.00;;;;;-147.17;100.00;-15917.19;5059011;27;51164;-51
2023/01/20 05:57:40;;;;;;;;;22.00;20.50;;;;;-147.17;100.00;-15917.19;5053976;28;51675;-51
2023/01/20 06:00:06;;;;;;;;;28.00;24.00;;;;;-147.17;100.00;-15917.19;5067569;28;51082;-51
2023/01/20 06:02:32;;;;;;;;;24.00;20.75;;;;;-147.17;100.00;-15917.19;5068765;27;51084;-51
2023/01/20 06:05:00;;;;;;;;;27.25;25.00;;;;;-147.17;100.00;-15917.19;5056579;28;51407;-54
2023/01/20 06:07:26;;;;;;;;;26.50;24.50;;;;;-147.17;100.00;-15917.19;5044252;27;52877;-53
2023/01/20 06:09:52;;;;;;;;;27.50;23.75;;;;;-147.17;100.00;-15917.19;5062206;28;51149;-52
2023/01/20 06:12:17;;;;;;;;;24.75;23.00;;;;;-147.17;100.00;-15917.19;5047465;27;51532;-53
2023/01/20 06:14:42;;;;;;;;;26.50;23.50;;;;;-147.17;100.00;-15917.19;5053092;28;51036;-53
2023/01/20 06:17:08;;;;;;;;;26.00;21.50;;;;;-147.17;100.00;-15917.19;5053512;27;52192;-53
2023/01/20 06:19:33;;;;;;;;;21.50;19.00;;;;;-147.17;100.00;-15917.19;5051203;28;51081;-54
2023/01/20 06:21:58;;;;;;;;;24.00;20.25;;;;;-147.17;100.00;-15917.19;5067222;27;51146;-52
2023/01/20 06:24:24;;;;;;;;;19.25;18.00;;;;;-147.17;100.00;-15917.19;5060311;28;51423;-53
2023/01/20 06:26:50;;;;;;;;;24.00;23.25;;;;;-147.17;100.00;-15917.19;5047166;28;53673;-51
2023/01/20 06:29:15;;;;;;;;;26.00;20.00;;;;;-147.17;100.00;-15917.19;5074690;27;51025;-53
2023/01/20 06:31:41;;;;;;;;;26.00;24.50;;;;;-147.17;100.00;-15917.19;5044684;27;51570;-53
2023/01/20 06:34:06;;;;;;;;;30.75;27.00;;;;;-147.17;100.00;-15917.19;5054929;28;51328;-54
2023/01/20 06:36:31;;;;;;;;;37.00;30.25;;;;;-147.17;100.00;-15917.19;5053453;27;51897;-52
2023/01/20 06:38:57;;;;;;;;;27.25;23.75;;;;;-147.17;100.00;-15917.19;5073732;28;51010;-52
2023/01/20 06:41:23;;;;;;;;;25.00;22.75;;;;;-147.17;100.00;-15917.19;5054729;28;51051;-52
2023/01/20 06:43:50;;;;;;;;;21.75;20.00;;;;;-147.17;100.00;-15917.19;5074391;27;51394;-52
2023/01/20 06:46:16;;;;;;;;;29.00;26.00;;;;;-147.17;100.00;-15917.19;5054939;27;50898;-54
2023/01/20 06:48:42;;;;;;;;;27.75;26.75;;;;;-147.17;100.00;-15917.19;5058054;27;53098;-54
2023/01/20 06:51:14;;;;;;;;;32.25;28.50;;;;;-147.17;100.00;-15917.19;5056730;28;51017;-54
2023/01/20 06:53:40;;;;;;;;;28.50;23.50;;;;;-147.17;100.00;-15917.19;5063434;27;51320;-50
2023/01/20 06:56:06;;;;;;;;;28.25;23.75;;;;;-147.17;100.00;-15917.19;5051123;28;51192;-51
2023/01/20 06:58:32;;;;;;;;;29.00;26.50;;;;;-147.17;100.00;-15917.19;5046667;27;51026;-53
2023/01/20 07:01:07;;;;;;;;;34.00;33.00;;;;;-147.17;100.00;-15917.19;5054030;28;51095;-52
2023/01/20 07:03:34;;;;;;;;;36.00;30.75;;;;;-147.17;100.00;-15917.19;5055349;27;51218;-53
2023/01/20 07:06:02;;;;;;;;;26.00;25.50;;;;;-147.17;100.00;-15917.19;5055892;28;53496;-51
2023/01/20 07:08:28;;;;;;;;;26.25;23.50;;;;;-147.17;100.00;-15917.19;5056353;27;51229;-51
2023/01/20 07:10:54;;;;;;;;;27.25;20.75;;;;;-147.17;100.00;-15917.19;5054924;28;51092;-53
2023/01/20 07:13:19;;;;;;;;;24.50;23.75;;;;;-147.17;100.00;-15917.19;5061880;28;51377;-54
2023/01/20 07:15:45;;;;;;;;;25.25;23.75;;;;;-147.17;100.00;-15917.19;5061033;27;51140;-53
2023/01/20 07:18:10;;;;;;;;;32.25;31.50;;;;;-147.17;100.00;-15917.19;5037838;28;51164;-53
2023/01/20 07:20:37;;;;;;;;;28.25;25.00;;;;;-147.17;100.00;-15917.19;5049029;28;51133;-52
2023/01/20 07:23:03;;;;;;;;;28.75;23.25;;;;;-147.17;100.00;-15917.19;5055754;28;51252;-53
2023/01/20 07:25:29;;;;;;;;;26.50;25.25;;;;;-147.17;100.00;-15917.19;5065962;27;51170;-54
2023/01/20 07:27:56;;;;;;;;;24.50;21.00;;;;;-147.17;100.00;-15917.19;5044042;28;51332;-53
2023/01/20 07:30:22;;;;;;;;;25.25;23.00;;;;;-147.17;100.00;-15917.19;5064610;27;51195;-50
2023/01/20 07:32:47;;;;;;;;;22.75;21.50;;;;;-147.17;100.00;-15917.19;5062025;28;51009;-53
2023/01/20 07:35:13;;;;;;;;;23.25;21.75;;;;;-147.17;100.00;-15917.19;5063042;27;51633;-53
2023/01/20 07:37:39;;;;;;;;;32.00;26.25;;;;;-147.17;100.00;-15917.19;5051871;28;51052;-56
2023/01/20 07:40:06;;;;;;;;;23.00;20.75;;;;;-147.17;100.00;-15917.19;5067326;27;51502;-53
2023/01/20 07:42:31;;;;;;;;;30.75;28.75;;;;;-147.17;100.00;-15917.19;5057275;28;51312;-53
2023/01/20 07:44:56;;;;;;;;;20.25;19.25;;;;;-147.17;100.00;-15917.19;5061563;27;51474;-53
2023/01/20 07:47:22;;;;;;;;;29.25;26.25;;;;;-147.17;100.00;-15917.19;5043218;28;51272;-55
2023/01/20 07:49:48;;;;;;;;;34.25;30.00;;;;;-147.17;100.00;-15917.19;5069007;27;51207;-53
2023/01/20 07:52:13;;;;;;;;;26.50;23.75;;;;;-147.17;100.00;-15917.19;5066621;27;51213;-52
2023/01/20 07:54:38;;;;;;;;;27.25;23.50;;;;;-147.17;100.00;-15917.19;5072532;27;51990;-53
2023/01/20 07:57:04;;;;;;;;;34.25;28.25;;;;;-147.17;100.00;-15917.19;5064594;27;51346;-56
2023/01/20 07:59:29;;;;;;;;;37.00;30.00;;;;;-147.17;100.00;-15917.19;5048883;28;51175;-51
2023/01/20 08:01:55;;;;;;;;;23.00;22.25;;;;;-147.17;100.00;-15917.19;5038191;28;51418;-51
2023/01/20 08:04:20;;;;;;;;;42.25;34.25;;;;;-147.17;100.00;-15917.19;5047747;28;51215;-52
2023/01/20 08:06:46;;;;;;;;;33.00;28.25;;;;;-147.17;100.00;-15917.19;5062997;28;51144;-53
2023/01/20 08:09:13;;;;;;;;;23.75;22.50;;;;;-147.17;100.00;-15917.19;5060146;27;51163;-53
2023/01/20 08:11:38;;;;;;;;;23.75;22.50;;;;;-147.17;100.00;-15917.19;5036737;28;51079;-53
2023/01/20 08:14:04;;;;;;;;;30.25;27.25;;;;;-147.17;100.00;-15917.19;5054186;28;51856;-53
2023/01/20 08:16:29;;;;;;;;;27.50;22.75;;;;;-147.17;100.00;-15917.19;5046917;28;51006;-54
2023/01/20 08:18:55;;;;;;;;;24.75;22.50;;;;;-147.17;100.00;-15917.19;5043210;28;51280;-52
2023/01/20 08:21:26;;;;;;;;;26.50;22.25;;;;;-147.17;100.00;-15917.19;5043143;28;51239;-54
2023/01/20 08:23:54;;;;;;;;;23.75;22.75;;;;;-147.17;100.00;-15917.19;5057889;28;51870;-54
2023/01/20 08:26:19;;;;;;;;;15.00;14.50;;;;;-147.17;100.00;-15917.19;5053397;28;51036;-53
2023/01/20 08:28:45;;;;;;;;;25.25;23.50;;;;;-147.17;100.00;-15917.19;5045568;28;51168;-52
2023/01/20 08:31:13;;;;;;;;;19.50;19.25;;;;;-147.17;100.00;-15917.19;5036636;28;51478;-52
2023/01/20 08:33:43;;;;;;;;;23.25;21.75;;;;;-147.17;100.00;-15917.19;5052602;28;52674;-53
2023/01/20 08:36:12;;;;;;;;;27.00;25.25;;;;;-147.17;100.00;-15917.19;5045290;28;51205;-55
2023/01/20 08:38:38;;;;;;;;;24.50;21.25;;;;;-147.17;100.00;-15917.19;5053365;28;50975;-52
2023/01/20 08:41:09;;;;;;;;;23.50;21.50;;;;;-147.17;100.00;-15917.19;5057128;27;51263;-55
2023/01/20 08:43:35;;;;;;;;;24.00;23.00;;;;;-147.17;100.00;-15917.19;5063983;27;52149;-54
2023/01/20 08:46:05;;;;;;;;;24.25;21.50;;;;;-147.17;100.00;-15917.19;5054373;28;51097;-55
2023/01/20 08:48:30;;;;;;;;;20.75;20.00;;;;;-147.17;100.00;-15917.19;5064553;27;51127;-52
2023/01/20 08:50:59;;;;;;;;;23.50;22.75;;;;;-147.17;100.00;-15917.19;5056236;27;51266;-55
2023/01/20 08:53:25;;;;;;;;;22.00;22.00;;;;;-147.17;100.00;-15917.19;5061805;27;50970;-54
2023/01/20 08:55:55;;;;;;;;;21.25;20.75;;;;;-147.17;100.00;-15917.19;5053928;28;51405;-55
2023/01/20 08:58:21;;;;;;;;;21.25;20.25;;;;;-147.17;100.00;-15917.19;5054918;27;51078;-53
2023/01/20 09:00:46;;;;;;;;;23.00;20.25;;;;;-147.17;100.00;-15917.19;5049152;28;51154;-53
2023/01/20 09:03:12;;;;;;;;;19.75;17.25;;;;;-147.17;100.00;-15917.19;5052037;28;51126;-54
2023/01/20 09:05:37;;;;;;;;;22.75;20.00;;;;;-147.17;100.00;-15917.19;5051836;27;50984;-51
2023/01/20 09:08:04;;;;;;;;;21.00;20.25;;;;;-147.17;100.00;-15917.19;5046852;28;51058;-55
2023/01/20 09:10:33;;;;;;;;;21.25;20.25;;;;;-147.17;100.00;-15917.19;5057062;27;51160;-52
2023/01/20 09:12:58;;;;;;;;;15.25;14.75;;;;;-147.17;100.00;-15917.19;5039255;28;51985;-54
2023/01/20 09:15:24;;;;;;;;;15.00;13.25;;;;;-147.17;100.00;-15917.19;5064043;27;51102;-52
2023/01/20 09:17:49;;;;;;;;;23.00;17.75;;;;;-147.17;100.00;-15917.19;5057690;28;51227;-53
2023/01/20 09:20:15;;;;;;;;;16.75;13.75;;;;;-147.17;100.00;-15917.19;5060099;27;51324;-52
2023/01/20 09:22:40;;;;;;;;;15.00;13.75;;;;;-147.17;100.00;-15917.19;5063194;28;52368;-54
2023/01/20 09:25:08;;;;;;;;;15.75;14.00;;;;;-147.17;100.00;-15917.19;5054388;27;51196;-53
2023/01/20 09:27:33;;;;;;;;;18.75;16.50;;;;;-147.17;100.00;-15917.19;5047188;28;51393;-51
2023/01/20 09:29:58;;;;;;;;;15.50;12.75;;;;;-147.17;100.00;-15917.19;5052137;28;50868;-51
2023/01/20 09:32:24;;;;;;;;;13.75;13.00;;;;;-147.17;100.00;-15917.19;5046678;28;51177;-51
2023/01/20 09:34:49;;;;;;;;;13.75;12.25;;;;;-147.17;100.00;-15917.19;5054579;28;51198;-52
2023/01/20 09:46:13;;;;;;;;;19.25;17.50;;;;;-147.17;100.00;-15917.19;5046539;28;51192;-50
2023/01/20 09:54:43;;;;;;;;;10.25;9.75;;;;;-147.17;100.00;-15917.19;5063787;28;51219;-50
2023/01/20 09:57:12;;;;;;;;;11.25;9.75;;;;;-147.17;100.00;-15917.19;5052579;28;51061;-51
2023/01/20 09:59:53;;;;;;;;;10.50;7.00;;;;;-147.17;100.00;-15917.19;5073733;28;51158;-48
2023/01/20 10:02:27;;;;;;;;;10.00;9.75;;;;;-147.17;100.00;-15917.19;5055086;28;51212;-49
2023/01/20 10:05:10;;;;;;;;;9.00;9.00;;;;;-147.17;100.00;-15917.19;5058066;28;51639;-49
2023/01/20 10:07:56;;;;;;;;;12.50;10.50;;;;;-147.17;100.00;-15917.19;5066966;27;51174;-49
2023/01/20 10:10:30;;;;;;;;;11.00;10.50;;;;;-147.17;100.00;-15917.19;5070612;27;51317;-49
2023/01/20 10:13:20;;;;;;;;;10.75;9.00;;;;;-147.17;100.00;-15917.19;5062792;28;51191;-51
2023/01/20 10:15:59;;;;;;;;;7.25;5.75;;;;;-147.17;100.00;-15917.19;5050546;28;51149;-49
2023/01/20 10:18:33;;;;;;;;;11.50;10.00;;;;;-147.17;100.00;-15917.19;5068593;27;51021;-48
2023/01/20 10:21:12;;;;;;;;;11.00;11.00;;;;;-147.17;100.00;-15917.19;5041987;28;51161;-50
2023/01/20 10:24:08;;;;;;;;;9.00;9.00;;;;;-147.17;100.00;-15917.19;5056423;28;51052;-49
2023/01/20 10:26:45;;;;;;;;;13.75;9.75;;;;;-147.17;100.00;-15917.19;5070044;28;50937;-49
2023/01/20 10:29:19;;;;;;;;;10.75;8.75;;;;;-147.17;100.00;-15917.19;5045240;28;50970;-49
2023/01/20 10:31:57;;;;;;;;;3.00;1.50;;;;;-147.17;100.00;-15917.19;5043713;28;51226;-47
2023/01/20 10:34:24;;;;;;;;;12.50;10.00;;;;;-147.17;100.00;-15917.19;5050491;28;51277;-49
2023/01/20 10:36:59;;;;;;;;;10.00;8.50;;;;;-147.17;100.00;-15917.19;5052424;27;52900;-49
2023/01/20 10:40:07;;;;;;;;;11.75;9.50;;;;;-147.17;100.00;-15917.19;5048672;28;51235;-48
2023/01/20 10:42:33;;;;;;;;;7.00;6.75;;;;;-147.17;100.00;-15917.19;5043795;28;51136;-49
2023/01/20 10:44:59;;;;;;;;;9.75;9.25;;;;;-147.17;100.00;-15917.19;5064805;28;51018;-50
2023/01/20 10:47:30;;;;;;;;;6.25;5.25;;;;;-147.17;100.00;-15917.19;5044103;28;51117;-49
2023/01/20 10:50:10;;;;;;;;;7.00;6.25;;;;;-147.17;100.00;-15917.19;5052686;28;51782;-51
2023/01/20 10:53:00;;;;;;;;;8.00;6.25;;;;;-147.17;100.00;-15917.19;5061903;28;51090;-48
2023/01/20 10:55:37;;;;;;;;;7.00;5.75;;;;;-147.17;100.00;-15917.19;5073608;28;51235;-52
2023/01/20 10:58:17;;;;;;;;;7.50;7.50;;;;;-147.17;100.00;-15917.19;5069122;28;51806;-50
2023/01/20 11:00:43;;;;;;;;;10.00;10.00;;;;;-147.17;100.00;-15917.19;5040743;28;51066;-51
2023/01/20 11:03:14;;;;;;;;;8.50;8.25;;;;;-147.17;100.00;-15917.19;5067208;28;51072;-49
2023/01/20 11:05:41;;;;;;;;;9.75;9.75;;;;;-147.17;100.00;-15917.19;5059812;27;50837;-48
2023/01/20 11:08:25;;;;;;;;;8.25;8.00;;;;;-147.17;100.00;-15917.19;5061739;28;51277;-51
2023/01/20 11:10:55;;;;;;;;;7.25;7.00;;;;;-147.17;100.00;-15917.19;5046066;28;51970;-50